sensor_id;sensor_type;location;lat;lon;timestamp;pressure;altitude;pressure_sealevel;temperature;humidity
30730;BME280;17476;48.458;7.928;2023-12-29T00:00:39;100168.81;;;10.53;96.39
30730;BME280;17476;48.458;7.928;2023-12-29T00:03:05;100156.38;;;10.55;96.45
30730;BME280;17476;48.458;7.928;2023-12-29T00:05:31;100162.94;;;10.59;95.88
30730;BME280;17476;48.458;7.928;2023-12-29T00:07:57;100163.88;;;10.50;96.00
30730;BME280;17476;48.458;7.928;2023-12-29T00:10:22;100166.66;;;10.48;97.49
30730;BME280;17476;48.458;7.928;2023-12-29T00:12:48;100164.38;;;10.45;97.41
30730;BME280;17476;48.458;7.928;2023-12-29T00:15:17;100176.47;;;10.54;96.14
30730;BME280;17476;48.458;7.928;2023-12-29T00:17:44;100168.00;;;10.60;95.05
30730;BME280;17476;48.458;7.928;2023-12-29T00:20:12;100168.81;;;10.61;95.95
30730;BME280;17476;48.458;7.928;2023-12-29T00:22:38;100175.50;;;10.55;96.04
30730;BME280;17476;48.458;7.928;2023-12-29T00:25:04;100177.69;;;10.68;95.35
30730;BME280;17476;48.458;7.928;2023-12-29T00:27:31;100174.44;;;10.74;95.69
30730;BME280;17476;48.458;7.928;2023-12-29T00:29:56;100176.38;;;10.64;96.43
30730;BME280;17476;48.458;7.928;2023-12-29T00:32:22;100175.38;;;10.65;96.50
30730;BME280;17476;48.458;7.928;2023-12-29T00:34:48;100183.06;;;10.66;95.94
30730;BME280;17476;48.458;7.928;2023-12-29T00:37:14;100179.00;;;10.72;95.40
30730;BME280;17476;48.458;7.928;2023-12-29T00:39:39;100177.97;;;10.57;96.19
30730;BME280;17476;48.458;7.928;2023-12-29T00:42:06;100177.19;;;10.64;96.63
30730;BME280;17476;48.458;7.928;2023-12-29T00:44:33;100178.66;;;10.67;96.38
30730;BME280;17476;48.458;7.928;2023-12-29T00:46:59;100184.31;;;10.54;96.62
30730;BME280;17476;48.458;7.928;2023-12-29T00:49:25;100175.69;;;10.62;97.61
30730;BME280;17476;48.458;7.928;2023-12-29T00:51:51;100180.44;;;10.58;96.67
30730;BME280;17476;48.458;7.928;2023-12-29T00:54:17;100178.94;;;10.56;97.59
30730;BME280;17476;48.458;7.928;2023-12-29T00:56:52;100169.06;;;10.42;97.96
30730;BME280;17476;48.458;7.928;2023-12-29T00:59:19;100165.22;;;10.62;97.83
30730;BME280;17476;48.458;7.928;2023-12-29T01:01:47;100157.75;;;10.75;96.14
30730;BME280;17476;48.458;7.928;2023-12-29T01:04:13;100161.19;;;10.76;96.33
30730;BME280;17476;48.458;7.928;2023-12-29T01:06:39;100167.13;;;10.86;96.34
30730;BME280;17476;48.458;7.928;2023-12-29T01:09:06;100168.91;;;10.77;96.07
30730;BME280;17476;48.458;7.928;2023-12-29T01:11:34;100156.09;;;10.58;96.92
30730;BME280;17476;48.458;7.928;2023-12-29T01:14:00;100158.34;;;10.53;96.62
30730;BME280;17476;48.458;7.928;2023-12-29T01:16:26;100154.25;;;10.50;97.63
30730;BME280;17476;48.458;7.928;2023-12-29T01:18:52;100157.69;;;10.51;97.27
30730;BME280;17476;48.458;7.928;2023-12-29T01:21:18;100158.00;;;10.48;97.65
30730;BME280;17476;48.458;7.928;2023-12-29T01:23:44;100158.69;;;10.58;96.85
30730;BME280;17476;48.458;7.928;2023-12-29T01:26:09;100160.53;;;10.74;97.05
30730;BME280;17476;48.458;7.928;2023-12-29T01:28:35;100154.03;;;10.86;95.00
30730;BME280;17476;48.458;7.928;2023-12-29T01:31:01;100149.06;;;10.66;95.98
30730;BME280;17476;48.458;7.928;2023-12-29T01:33:27;100157.75;;;10.75;96.68
30730;BME280;17476;48.458;7.928;2023-12-29T01:35:53;100163.28;;;10.64;97.04
30730;BME280;17476;48.458;7.928;2023-12-29T01:38:18;100167.22;;;10.76;96.49
30730;BME280;17476;48.458;7.928;2023-12-29T01:40:47;100165.66;;;10.91;96.07
30730;BME280;17476;48.458;7.928;2023-12-29T01:43:13;100163.34;;;10.80;94.87
30730;BME280;17476;48.458;7.928;2023-12-29T01:45:39;100166.41;;;10.76;96.21
30730;BME280;17476;48.458;7.928;2023-12-29T01:48:06;100160.44;;;11.00;94.66
30730;BME280;17476;48.458;7.928;2023-12-29T01:50:32;100162.09;;;11.09;95.30
30730;BME280;17476;48.458;7.928;2023-12-29T01:52:59;100161.94;;;11.18;95.25
30730;BME280;17476;48.458;7.928;2023-12-29T01:55:27;100159.63;;;11.24;93.34
30730;BME280;17476;48.458;7.928;2023-12-29T01:57:54;100164.69;;;11.01;94.66
30730;BME280;17476;48.458;7.928;2023-12-29T02:00:21;100164.69;;;11.17;94.00
30730;BME280;17476;48.458;7.928;2023-12-29T02:02:47;100155.00;;;10.85;96.04
30730;BME280;17476;48.458;7.928;2023-12-29T02:05:14;100139.44;;;10.83;95.30
30730;BME280;17476;48.458;7.928;2023-12-29T02:07:42;100149.25;;;10.73;95.86
30730;BME280;17476;48.458;7.928;2023-12-29T02:10:08;100143.00;;;10.58;96.31
30730;BME280;17476;48.458;7.928;2023-12-29T02:12:35;100143.13;;;10.56;97.17
30730;BME280;17476;48.458;7.928;2023-12-29T02:15:05;100140.19;;;10.51;97.14
30730;BME280;17476;48.458;7.928;2023-12-29T02:17:40;100135.81;;;10.60;97.48
30730;BME280;17476;48.458;7.928;2023-12-29T02:20:08;100128.25;;;10.49;97.21
30730;BME280;17476;48.458;7.928;2023-12-29T02:22:34;100120.75;;;10.54;97.49
30730;BME280;17476;48.458;7.928;2023-12-29T02:25:00;100125.16;;;10.53;97.76
30730;BME280;17476;48.458;7.928;2023-12-29T02:31:17;100117.97;;;10.55;97.53
30730;BME280;17476;48.458;7.928;2023-12-29T02:33:45;100115.16;;;10.49;99.42
30730;BME280;17476;48.458;7.928;2023-12-29T02:36:12;100107.22;;;10.58;98.33
30730;BME280;17476;48.458;7.928;2023-12-29T02:38:39;100119.78;;;10.63;98.67
30730;BME280;17476;48.458;7.928;2023-12-29T02:41:05;100119.31;;;10.59;99.21
30730;BME280;17476;48.458;7.928;2023-12-29T02:43:31;100120.13;;;10.68;99.12
30730;BME280;17476;48.458;7.928;2023-12-29T02:45:58;100112.91;;;10.54;99.64
30730;BME280;17476;48.458;7.928;2023-12-29T02:48:24;100114.84;;;10.44;100.00
30730;BME280;17476;48.458;7.928;2023-12-29T02:50:49;100104.38;;;10.44;100.00
30730;BME280;17476;48.458;7.928;2023-12-29T02:53:16;100094.59;;;10.54;100.00
30730;BME280;17476;48.458;7.928;2023-12-29T02:55:41;100095.25;;;10.56;100.00
30730;BME280;17476;48.458;7.928;2023-12-29T02:58:08;100093.44;;;10.48;100.00
30730;BME280;17476;48.458;7.928;2023-12-29T03:00:34;100086.91;;;10.52;100.00
30730;BME280;17476;48.458;7.928;2023-12-29T03:03:00;100093.28;;;10.50;100.00
30730;BME280;17476;48.458;7.928;2023-12-29T03:05:26;100083.97;;;10.47;100.00
30730;BME280;17476;48.458;7.928;2023-12-29T03:07:51;100091.47;;;10.42;100.00
30730;BME280;17476;48.458;7.928;2023-12-29T03:10:17;100094.59;;;10.46;100.00
30730;BME280;17476;48.458;7.928;2023-12-29T03:12:43;100090.66;;;10.50;100.00
30730;BME280;17476;48.458;7.928;2023-12-29T03:15:09;100103.25;;;10.46;100.00
30730;BME280;17476;48.458;7.928;2023-12-29T03:17:35;100096.88;;;10.49;100.00
30730;BME280;17476;48.458;7.928;2023-12-29T03:20:02;100095.25;;;10.56;100.00
30730;BME280;17476;48.458;7.928;2023-12-29T03:22:30;100090.63;;;10.42;100.00
30730;BME280;17476;48.458;7.928;2023-12-29T03:24:55;100099.00;;;10.45;100.00
30730;BME280;17476;48.458;7.928;2023-12-29T03:27:21;100098.47;;;10.42;100.00
30730;BME280;17476;48.458;7.928;2023-12-29T03:29:47;100096.84;;;10.41;100.00
30730;BME280;17476;48.458;7.928;2023-12-29T03:32:13;100090.31;;;10.36;100.00
30730;BME280;17476;48.458;7.928;2023-12-29T03:34:40;100096.19;;;10.38;100.00
30730;BME280;17476;48.458;7.928;2023-12-29T03:37:05;100091.47;;;10.42;100.00
30730;BME280;17476;48.458;7.928;2023-12-29T03:39:31;100095.06;;;10.41;100.00
30730;BME280;17476;48.458;7.928;2023-12-29T03:42:01;100093.13;;;10.43;100.00
30730;BME280;17476;48.458;7.928;2023-12-29T03:44:27;100098.19;;;10.53;100.00
30730;BME280;17476;48.458;7.928;2023-12-29T03:46:52;100099.34;;;10.50;100.00
30730;BME280;17476;48.458;7.928;2023-12-29T03:49:18;100100.97;;;10.43;100.00
30730;BME280;17476;48.458;7.928;2023-12-29T03:51:45;100097.50;;;10.43;100.00
30730;BME280;17476;48.458;7.928;2023-12-29T03:54:12;100091.97;;;10.46;100.00
30730;BME280;17476;48.458;7.928;2023-12-29T03:56:38;100072.06;;;10.53;100.00
30730;BME280;17476;48.458;7.928;2023-12-29T03:59:03;100085.41;;;10.42;100.00
30730;BME280;17476;48.458;7.928;2023-12-29T04:01:33;100087.38;;;10.39;100.00
30730;BME280;17476;48.458;7.928;2023-12-29T04:03:59;100085.28;;;10.43;100.00
30730;BME280;17476;48.458;7.928;2023-12-29T04:06:24;100074.31;;;10.39;100.00
30730;BME280;17476;48.458;7.928;2023-12-29T04:08:50;100080.78;;;10.27;100.00
30730;BME280;17476;48.458;7.928;2023-12-29T04:11:16;100079.50;;;10.31;100.00
30730;BME280;17476;48.458;7.928;2023-12-29T04:13:42;100087.72;;;10.36;100.00
30730;BME280;17476;48.458;7.928;2023-12-29T04:16:07;100082.97;;;10.40;100.00
30730;BME280;17476;48.458;7.928;2023-12-29T04:18:33;100078.91;;;10.46;100.00
30730;BME280;17476;48.458;7.928;2023-12-29T04:20:59;100074.66;;;10.45;100.00
30730;BME280;17476;48.458;7.928;2023-12-29T04:23:25;100079.88;;;10.45;100.00
30730;BME280;17476;48.458;7.928;2023-12-29T04:25:51;100078.81;;;10.29;100.00
30730;BME280;17476;48.458;7.928;2023-12-29T04:28:17;100072.66;;;10.38;100.00
30730;BME280;17476;48.458;7.928;2023-12-29T04:30:43;100072.47;;;10.24;100.00
30730;BME280;17476;48.458;7.928;2023-12-29T04:33:08;100065.13;;;10.35;100.00
30730;BME280;17476;48.458;7.928;2023-12-29T04:35:34;100061.88;;;10.33;100.00
30730;BME280;17476;48.458;7.928;2023-12-29T04:38:00;100063.50;;;10.34;100.00
30730;BME280;17476;48.458;7.928;2023-12-29T04:40:26;100067.72;;;10.27;100.00
30730;BME280;17476;48.458;7.928;2023-12-29T04:42:51;100071.66;;;10.23;100.00
30730;BME280;17476;48.458;7.928;2023-12-29T04:45:17;100072.47;;;10.24;100.00
30730;BME280;17476;48.458;7.928;2023-12-29T04:47:43;100071.00;;;10.29;100.00
30730;BME280;17476;48.458;7.928;2023-12-29T04:50:09;100070.16;;;10.29;100.00
30730;BME280;17476;48.458;7.928;2023-12-29T04:52:34;100075.59;;;10.35;100.00
30730;BME280;17476;48.458;7.928;2023-12-29T04:55:00;100078.06;;;10.37;100.00
30730;BME280;17476;48.458;7.928;2023-12-29T04:57:26;100092.94;;;10.45;100.00
30730;BME280;17476;48.458;7.928;2023-12-29T04:59:51;100084.94;;;10.38;100.00
30730;BME280;17476;48.458;7.928;2023-12-29T05:02:17;100093.59;;;10.47;100.00
30730;BME280;17476;48.458;7.928;2023-12-29T05:04:45;100098.19;;;10.45;100.00
30730;BME280;17476;48.458;7.928;2023-12-29T05:07:11;100086.41;;;10.49;100.00
30730;BME280;17476;48.458;7.928;2023-12-29T05:09:37;100101.78;;;10.52;100.00
30730;BME280;17476;48.458;7.928;2023-12-29T05:12:03;100097.31;;;10.36;100.00
30730;BME280;17476;48.458;7.928;2023-12-29T05:14:29;100095.06;;;10.41;100.00
30730;BME280;17476;48.458;7.928;2023-12-29T05:16:54;100079.56;;;10.56;100.00
30730;BME280;17476;48.458;7.928;2023-12-29T05:19:20;100080.88;;;10.44;100.00
30730;BME280;17476;48.458;7.928;2023-12-29T05:21:47;100080.81;;;10.35;100.00
30730;BME280;17476;48.458;7.928;2023-12-29T05:24:15;100078.88;;;10.37;100.00
30730;BME280;17476;48.458;7.928;2023-12-29T05:26:41;100065.13;;;10.35;100.00
30730;BME280;17476;48.458;7.928;2023-12-29T05:29:06;100071.16;;;10.28;100.00
30730;BME280;17476;48.458;7.928;2023-12-29T05:31:32;100070.03;;;10.30;100.00
30730;BME280;17476;48.458;7.928;2023-12-29T05:33:58;100076.56;;;10.34;100.00
30730;BME280;17476;48.458;7.928;2023-12-29T05:36:24;100075.34;;;10.21;100.00
30730;BME280;17476;48.458;7.928;2023-12-29T05:38:50;100073.28;;;10.24;100.00
30730;BME280;17476;48.458;7.928;2023-12-29T05:41:15;100080.53;;;10.47;100.00
30730;BME280;17476;48.458;7.928;2023-12-29T05:43:41;100072.69;;;10.55;100.00
30730;BME280;17476;48.458;7.928;2023-12-29T05:46:11;100078.19;;;10.27;100.00
30730;BME280;17476;48.458;7.928;2023-12-29T05:48:38;100079.69;;;10.30;100.00
30730;BME280;17476;48.458;7.928;2023-12-29T05:51:10;100077.13;;;10.20;100.00
30730;BME280;17476;48.458;7.928;2023-12-29T05:53:39;100072.91;;;10.19;100.00
30730;BME280;17476;48.458;7.928;2023-12-29T05:56:05;100072.91;;;10.19;100.00
30730;BME280;17476;48.458;7.928;2023-12-29T05:58:31;100072.25;;;10.17;100.00
30730;BME280;17476;48.458;7.928;2023-12-29T06:00:58;100083.03;;;10.22;100.00
30730;BME280;17476;48.458;7.928;2023-12-29T06:03:27;100081.13;;;10.24;100.00
30730;BME280;17476;48.458;7.928;2023-12-29T06:05:54;100072.97;;;10.35;100.00
30730;BME280;17476;48.458;7.928;2023-12-29T06:08:19;100067.91;;;10.34;100.00
30730;BME280;17476;48.458;7.928;2023-12-29T06:10:45;100074.94;;;10.42;100.00
30730;BME280;17476;48.458;7.928;2023-12-29T06:13:11;100068.78;;;10.51;100.00
30730;BME280;17476;48.458;7.928;2023-12-29T06:15:37;100064.22;;;10.61;100.00
30730;BME280;17476;48.458;7.928;2023-12-29T06:18:04;100076.66;;;10.67;100.00
30730;BME280;17476;48.458;7.928;2023-12-29T06:20:30;100077.31;;;10.69;100.00
30730;BME280;17476;48.458;7.928;2023-12-29T06:22:56;100074.72;;;10.77;100.00
30730;BME280;17476;48.458;7.928;2023-12-29T06:25:22;100077.44;;;10.51;100.00
30730;BME280;17476;48.458;7.928;2023-12-29T06:27:48;100080.38;;;10.48;100.00
30730;BME280;17476;48.458;7.928;2023-12-29T06:30:14;100078.28;;;10.60;100.00
30730;BME280;17476;48.458;7.928;2023-12-29T06:32:40;100089.00;;;10.41;100.00
30730;BME280;17476;48.458;7.928;2023-12-29T06:35:07;100091.41;;;10.26;100.00
30730;BME280;17476;48.458;7.928;2023-12-29T06:37:32;100082.59;;;10.27;100.00
30730;BME280;17476;48.458;7.928;2023-12-29T06:39:59;100085.84;;;10.29;100.00
30730;BME280;17476;48.458;7.928;2023-12-29T06:42:24;100079.69;;;10.30;100.00
30730;BME280;17476;48.458;7.928;2023-12-29T06:44:50;100076.41;;;10.36;100.00
30730;BME280;17476;48.458;7.928;2023-12-29T06:47:16;100074.13;;;10.33;100.00
30730;BME280;17476;48.458;7.928;2023-12-29T06:49:42;100067.41;;;10.30;100.00
30730;BME280;17476;48.458;7.928;2023-12-29T06:52:08;100062.19;;;10.30;100.00
30730;BME280;17476;48.458;7.928;2023-12-29T06:54:34;100066.91;;;10.27;100.00
30730;BME280;17476;48.458;7.928;2023-12-29T06:57:00;100064.94;;;10.29;100.00
30730;BME280;17476;48.458;7.928;2023-12-29T06:59:26;100065.88;;;10.20;100.00
30730;BME280;17476;48.458;7.928;2023-12-29T07:01:51;100074.28;;;10.31;100.00
30730;BME280;17476;48.458;7.928;2023-12-29T07:04:17;100077.09;;;10.38;100.00
30730;BME280;17476;48.458;7.928;2023-12-29T07:06:43;100080.13;;;10.25;100.00
30730;BME280;17476;48.458;7.928;2023-12-29T07:09:09;100082.44;;;10.28;100.00
30730;BME280;17476;48.458;7.928;2023-12-29T07:11:36;100078.25;;;10.44;100.00
30730;BME280;17476;48.458;7.928;2023-12-29T07:14:02;100077.72;;;10.32;100.00
30730;BME280;17476;48.458;7.928;2023-12-29T07:16:28;100088.03;;;10.42;100.00
30730;BME280;17476;48.458;7.928;2023-12-29T07:18:54;100091.34;;;10.18;100.00
30730;BME280;17476;48.458;7.928;2023-12-29T07:21:21;100088.97;;;10.32;100.00
30730;BME280;17476;48.458;7.928;2023-12-29T07:23:46;100097.44;;;10.26;100.00
30730;BME280;17476;48.458;7.928;2023-12-29T07:26:12;100087.38;;;10.39;100.00
30730;BME280;17476;48.458;7.928;2023-12-29T07:28:38;100076.09;;;10.39;100.00
30730;BME280;17476;48.458;7.928;2023-12-29T07:31:04;100071.47;;;10.25;100.00
30730;BME280;17476;48.458;7.928;2023-12-29T07:33:30;100092.22;;;10.26;100.00
30730;BME280;17476;48.458;7.928;2023-12-29T07:35:56;100082.78;;;10.33;100.00
30730;BME280;17476;48.458;7.928;2023-12-29T07:38:23;100078.72;;;10.39;100.00
30730;BME280;17476;48.458;7.928;2023-12-29T07:40:49;100083.59;;;10.42;100.00
30730;BME280;17476;48.458;7.928;2023-12-29T07:43:15;100073.78;;;10.36;100.00
30730;BME280;17476;48.458;7.928;2023-12-29T07:45:40;100071.84;;;10.30;100.00
30730;BME280;17476;48.458;7.928;2023-12-29T07:48:08;100075.75;;;10.34;100.00
30730;BME280;17476;48.458;7.928;2023-12-29T07:50:34;100074.94;;;10.42;100.00
30730;BME280;17476;48.458;7.928;2023-12-29T07:53:00;100082.31;;;10.46;100.00
30730;BME280;17476;48.458;7.928;2023-12-29T07:55:30;100077.59;;;10.50;100.00
30730;BME280;17476;48.458;7.928;2023-12-29T07:57:56;100067.78;;;10.44;100.00
30730;BME280;17476;48.458;7.928;2023-12-29T08:00:21;100081.19;;;10.49;100.00
30730;BME280;17476;48.458;7.928;2023-12-29T08:02:49;100088.03;;;10.50;100.00
30730;BME280;17476;48.458;7.928;2023-12-29T08:05:14;100085.13;;;10.53;100.00
30730;BME280;17476;48.458;7.928;2023-12-29T08:07:42;100085.47;;;10.58;100.00
30730;BME280;17476;48.458;7.928;2023-12-29T08:10:09;100082.84;;;10.58;100.00
30730;BME280;17476;48.458;7.928;2023-12-29T08:12:35;100085.13;;;10.53;100.00
30730;BME280;17476;48.458;7.928;2023-12-29T08:15:02;100087.94;;;10.68;100.00
30730;BME280;17476;48.458;7.928;2023-12-29T08:17:28;100089.91;;;10.74;100.00
30730;BME280;17476;48.458;7.928;2023-12-29T08:19:54;100091.19;;;10.61;100.00
30730;BME280;17476;48.458;7.928;2023-12-29T08:22:21;100101.19;;;10.74;100.00
30730;BME280;17476;48.458;7.928;2023-12-29T08:24:47;100097.28;;;10.78;100.00
30730;BME280;17476;48.458;7.928;2023-12-29T08:27:13;100097.59;;;10.75;100.00
30730;BME280;17476;48.458;7.928;2023-12-29T08:29:39;100102.81;;;10.75;100.00
30730;BME280;17476;48.458;7.928;2023-12-29T08:32:06;100100.72;;;10.71;100.00
30730;BME280;17476;48.458;7.928;2023-12-29T08:34:31;100101.19;;;10.82;100.00
30730;BME280;17476;48.458;7.928;2023-12-29T08:36:57;100106.59;;;10.81;100.00
30730;BME280;17476;48.458;7.928;2023-12-29T08:39:23;100112.69;;;10.98;100.00
30730;BME280;17476;48.458;7.928;2023-12-29T08:41:49;100109.72;;;10.92;100.00
30730;BME280;17476;48.458;7.928;2023-12-29T08:44:16;100116.59;;;10.93;100.00
30730;BME280;17476;48.458;7.928;2023-12-29T08:46:41;100107.81;;;11.11;100.00
30730;BME280;17476;48.458;7.928;2023-12-29T08:49:07;100105.50;;;11.00;100.00
30730;BME280;17476;48.458;7.928;2023-12-29T08:51:33;100115.31;;;11.14;100.00
30730;BME280;17476;48.458;7.928;2023-12-29T08:53:59;100113.50;;;11.14;100.00
30730;BME280;17476;48.458;7.928;2023-12-29T08:56:25;100122.19;;;11.07;100.00
30730;BME280;17476;48.458;7.928;2023-12-29T08:58:51;100120.72;;;11.12;100.00
30730;BME280;17476;48.458;7.928;2023-12-29T09:01:18;100120.53;;;11.22;100.00
30730;BME280;17476;48.458;7.928;2023-12-29T09:03:45;100124.47;;;11.26;100.00
30730;BME280;17476;48.458;7.928;2023-12-29T09:06:11;100121.69;;;11.11;100.00
30730;BME280;17476;48.458;7.928;2023-12-29T09:08:36;100119.56;;;11.15;100.00
30730;BME280;17476;48.458;7.928;2023-12-29T09:11:02;100126.13;;;11.19;100.00
30730;BME280;17476;48.458;7.928;2023-12-29T09:13:28;100134.94;;;11.34;100.00
30730;BME280;17476;48.458;7.928;2023-12-29T09:15:55;100123.81;;;11.24;100.00
30730;BME280;17476;48.458;7.928;2023-12-29T09:18:21;100130.88;;;11.32;100.00
30730;BME280;17476;48.458;7.928;2023-12-29T09:20:46;100124.31;;;11.44;100.00
30730;BME280;17476;48.458;7.928;2023-12-29T09:23:13;100127.06;;;11.51;100.00
30730;BME280;17476;48.458;7.928;2023-12-29T09:25:40;100135.94;;;11.66;100.00
30730;BME280;17476;48.458;7.928;2023-12-29T09:28:06;100130.34;;;11.85;100.00
30730;BME280;17476;48.458;7.928;2023-12-29T09:30:31;100129.53;;;11.93;100.00
30730;BME280;17476;48.458;7.928;2023-12-29T09:32:57;100133.75;;;12.02;100.00
30730;BME280;17476;48.458;7.928;2023-12-29T09:35:23;100133.56;;;12.03;100.00
30730;BME280;17476;48.458;7.928;2023-12-29T09:37:49;100143.88;;;12.05;100.00
30730;BME280;17476;48.458;7.928;2023-12-29T09:40:15;100133.25;;;12.07;100.00
30730;BME280;17476;48.458;7.928;2023-12-29T09:42:43;100138.88;;;11.87;100.00
30730;BME280;17476;48.458;7.928;2023-12-29T09:45:13;100135.41;;;11.95;100.00
30730;BME280;17476;48.458;7.928;2023-12-29T09:47:42;100132.78;;;11.95;100.00
30730;BME280;17476;48.458;7.928;2023-12-29T09:50:11;100134.56;;;12.02;100.00
30730;BME280;17476;48.458;7.928;2023-12-29T09:52:41;100138.66;;;12.13;100.00
30730;BME280;17476;48.458;7.928;2023-12-29T09:55:10;100137.66;;;12.14;100.00
30730;BME280;17476;48.458;7.928;2023-12-29T09:57:40;100122.88;;;12.21;99.03
30730;BME280;17476;48.458;7.928;2023-12-29T10:00:11;100126.19;;;12.15;100.00
30730;BME280;17476;48.458;7.928;2023-12-29T10:02:38;100119.63;;;12.11;100.00
30730;BME280;17476;48.458;7.928;2023-12-29T10:05:04;100108.56;;;12.32;99.07
30730;BME280;17476;48.458;7.928;2023-12-29T10:07:36;100108.81;;;12.53;98.79
30730;BME280;17476;48.458;7.928;2023-12-29T10:10:05;100106.81;;;12.55;97.31
30730;BME280;17476;48.458;7.928;2023-12-29T10:12:32;100107.75;;;12.32;99.11
30730;BME280;17476;48.458;7.928;2023-12-29T10:15:19;100104.88;;;12.49;98.92
30730;BME280;17476;48.458;7.928;2023-12-29T10:24:10;100093.63;;;12.95;96.05
30730;BME280;17476;48.458;7.928;2023-12-29T10:26:39;100089.78;;;12.82;96.58
30730;BME280;17476;48.458;7.928;2023-12-29T10:29:07;100083.66;;;12.90;96.11
30730;BME280;17476;48.458;7.928;2023-12-29T10:31:32;100083.00;;;13.11;95.79
30730;BME280;17476;48.458;7.928;2023-12-29T10:34:23;100083.69;;;13.51;94.13
30730;BME280;17476;48.458;7.928;2023-12-29T10:36:59;100072.25;;;13.44;92.71
30730;BME280;17476;48.458;7.928;2023-12-29T10:39:26;100076.59;;;13.51;91.81
30730;BME280;17476;48.458;7.928;2023-12-29T10:44:30;100056.50;;;13.88;90.45
30730;BME280;17476;48.458;7.928;2023-12-29T10:46:56;100059.31;;;14.01;89.40
30730;BME280;17476;48.458;7.928;2023-12-29T10:49:22;100053.56;;;14.27;87.98
30730;BME280;17476;48.458;7.928;2023-12-29T10:51:48;100049.91;;;14.43;86.24
30730;BME280;17476;48.458;7.928;2023-12-29T10:54:20;100038.03;;;14.68;84.75
30730;BME280;17476;48.458;7.928;2023-12-29T10:57:12;100036.59;;;14.87;83.65
30730;BME280;17476;48.458;7.928;2023-12-29T10:59:39;100034.66;;;14.74;85.01
30730;BME280;17476;48.458;7.928;2023-12-29T11:02:05;100037.34;;;14.60;85.06
30730;BME280;17476;48.458;7.928;2023-12-29T11:04:33;100029.16;;;14.91;82.63
30730;BME280;17476;48.458;7.928;2023-12-29T11:06:59;100027.66;;;15.10;81.75
30730;BME280;17476;48.458;7.928;2023-12-29T11:09:32;100029.78;;;15.21;82.69
30730;BME280;17476;48.458;7.928;2023-12-29T11:12:03;100032.47;;;14.57;83.62
30730;BME280;17476;48.458;7.928;2023-12-29T11:14:30;100027.72;;;15.16;81.67
30730;BME280;17476;48.458;7.928;2023-12-29T11:17:00;100023.34;;;15.30;80.25
30730;BME280;17476;48.458;7.928;2023-12-29T11:19:27;100018.69;;;15.25;80.53
30730;BME280;17476;48.458;7.928;2023-12-29T11:21:55;100021.81;;;14.86;80.02
30730;BME280;17476;48.458;7.928;2023-12-29T11:24:22;100030.59;;;14.51;82.43
30730;BME280;17476;48.458;7.928;2023-12-29T11:26:51;100022.94;;;14.77;81.34
30730;BME280;17476;48.458;7.928;2023-12-29T11:29:18;100025.63;;;14.62;81.72
30730;BME280;17476;48.458;7.928;2023-12-29T11:31:46;100019.28;;;14.20;85.21
30730;BME280;17476;48.458;7.928;2023-12-29T11:34:31;100013.28;;;14.27;85.42
30730;BME280;17476;48.458;7.928;2023-12-29T11:42:51;100018.38;;;14.13;84.41
30730;BME280;17476;48.458;7.928;2023-12-29T11:45:32;100007.47;;;13.65;87.52
30730;BME280;17476;48.458;7.928;2023-12-29T11:47:59;100004.41;;;13.62;89.15
30730;BME280;17476;48.458;7.928;2023-12-29T11:50:45;99999.31;;;13.60;89.31
30730;BME280;17476;48.458;7.928;2023-12-29T11:53:31;99993.06;;;13.76;88.87
30730;BME280;17476;48.458;7.928;2023-12-29T11:55:58;99987.25;;;13.81;88.09
30730;BME280;17476;48.458;7.928;2023-12-29T11:58:27;99974.00;;;14.04;87.53
30730;BME280;17476;48.458;7.928;2023-12-29T12:00:55;99968.88;;;14.38;85.31
30730;BME280;17476;48.458;7.928;2023-12-29T12:03:30;99975.31;;;14.72;84.67
30730;BME280;17476;48.458;7.928;2023-12-29T12:05:57;99975.59;;;14.41;84.29
30730;BME280;17476;48.458;7.928;2023-12-29T12:08:34;99972.63;;;14.65;81.95
30730;BME280;17476;48.458;7.928;2023-12-29T12:13:54;99983.13;;;14.87;78.21
30730;BME280;17476;48.458;7.928;2023-12-29T12:23:14;99953.53;;;16.89;68.38
30730;BME280;17476;48.458;7.928;2023-12-29T12:25:42;99979.31;;;15.24;74.46
30730;BME280;17476;48.458;7.928;2023-12-29T12:28:10;99971.81;;;14.65;78.10
30730;BME280;17476;48.458;7.928;2023-12-29T12:30:36;99960.00;;;15.10;77.04
30730;BME280;17476;48.458;7.928;2023-12-29T12:33:03;99966.59;;;15.27;75.55
30730;BME280;17476;48.458;7.928;2023-12-29T12:35:29;99965.44;;;15.71;74.70
30730;BME280;17476;48.458;7.928;2023-12-29T12:38:16;99963.72;;;15.57;73.97
30730;BME280;17476;48.458;7.928;2023-12-29T12:40:47;99965.66;;;15.76;72.24
30730;BME280;17476;48.458;7.928;2023-12-29T12:43:16;99974.94;;;15.31;74.21
30730;BME280;17476;48.458;7.928;2023-12-29T12:45:47;99973.97;;;14.83;74.77
30730;BME280;17476;48.458;7.928;2023-12-29T12:48:27;99969.31;;;14.42;76.30
30730;BME280;17476;48.458;7.928;2023-12-29T12:50:55;99968.59;;;14.48;76.07
30730;BME280;17476;48.458;7.928;2023-12-29T12:53:25;99975.97;;;14.38;77.52
30730;BME280;17476;48.458;7.928;2023-12-29T12:55:52;99974.94;;;14.54;75.48
30730;BME280;17476;48.458;7.928;2023-12-29T12:58:20;99981.88;;;14.61;76.18
30730;BME280;17476;48.458;7.928;2023-12-29T13:00:48;99973.69;;;14.71;76.25
30730;BME280;17476;48.458;7.928;2023-12-29T13:03:15;99979.84;;;14.42;73.00
30730;BME280;17476;48.458;7.928;2023-12-29T13:05:42;99978.94;;;14.13;75.65
30730;BME280;17476;48.458;7.928;2023-12-29T13:08:08;99977.31;;;14.12;75.93
30730;BME280;17476;48.458;7.928;2023-12-29T13:10:39;99977.03;;;14.07;75.21
30730;BME280;17476;48.458;7.928;2023-12-29T13:13:05;99979.59;;;14.37;71.97